Time;durP1;ratioP1;P1;durP2;ratioP2;P2;SDS_P1;SDS_P2;PMS_P1;PMS_P2;Temp;Humidity;BMP_temperature;BMP_pressure;BME280_temperature;BME280_humidity;BME280_pressure;Samples;Min_cycle;Max_cycle;Signal;HPM_P1;HPM_P2
2020/03/26 00:01:24;;;;;;;21.4;15.6;;;;;;;-0.02;62.5127;935.4945;;;;
2020/03/26 00:03:45;;;;;;;23.5;15.7;;;;;;;-0.07;62.45898;935.4348;;;;
2020/03/26 00:06:08;;;;;;;21.4;15.1;;;;;;;-0.09;62.82324;935.2727;;;;
2020/03/26 00:08:33;;;;;;;22;15.6;;;;;;;-0.16;62.82422;935.3278;;;;
2020/03/26 00:10:58;;;;;;;21;15.6;;;;;;;-0.16;62.89063;935.3465;;;;
2020/03/26 00:13:24;;;;;;;19.5;15.3;;;;;;;-0.19;63.06445;935.2817;;;;
2020/03/26 00:15:50;;;;;;;18.9;15.5;;;;;;;-0.18;62.84375;935.2978;;;;
2020/03/26 00:18:15;;;;;;;78.3;38.2;;;;;;;-0.13;63.82031;935.2374;;;;
2020/03/26 00:20:40;;;;;;;49.2;27.2;;;;;;;-0.11;64.12402;935.1813;;;;
2020/03/26 00:23:05;;;;;;;54;29.2;;;;;;;-0.13;63.84277;935.1764;;;;
2020/03/26 00:25:30;;;;;;;38.5;21.9;;;;;;;-0.12;63.29785;935.1353;;;;
2020/03/26 00:30:20;;;;;;;20.1;15.7;;;;;;;-0.16;63.10254;935.0421;;;;
2020/03/26 00:32:45;;;;;;;20.7;15.7;;;;;;;-0.23;63.1709;935.0098;;;;
2020/03/26 00:35:13;;;;;;;24.6;16.3;;;;;;;-0.31;63.24707;934.9576;;;;
2020/03/26 00:37:36;;;;;;;22.4;16.7;;;;;;;-0.35;63.0752;934.8702;;;;
2020/03/26 00:40:02;;;;;;;23.4;17.6;;;;;;;-0.31;63.37012;934.9313;;;;
2020/03/26 00:42:27;;;;;;;24.8;18.1;;;;;;;-0.3;63.39355;934.8329;;;;
2020/03/26 00:44:52;;;;;;;20.5;16.2;;;;;;;-0.3;63.7832;934.8487;;;;
2020/03/26 00:47:17;;;;;;;22.5;16.9;;;;;;;-0.54;64.43555;934.7612;;;;
2020/03/26 00:49:42;;;;;;;21.7;16.5;;;;;;;-0.66;65.00781;934.6844;;;;
2020/03/26 00:52:07;;;;;;;22.1;16.3;;;;;;;-0.67;64.96191;934.6433;;;;
2020/03/26 00:54:32;;;;;;;21.4;16.9;;;;;;;-0.69;65.23828;934.5566;;;;
2020/03/26 00:56:58;;;;;;;23.6;16.7;;;;;;;-0.66;64.94238;934.6102;;;;
2020/03/26 00:59:23;;;;;;;25.2;17.2;;;;;;;-0.61;64.66016;934.5156;;;;
2020/03/26 01:01:48;;;;;;;22.4;17.2;;;;;;;-0.53;64.46094;934.5717;;;;
2020/03/26 01:04:13;;;;;;;21.8;17;;;;;;;-0.51;64.53027;934.5499;;;;
2020/03/26 01:06:38;;;;;;;23.4;17.5;;;;;;;-0.56;64.75586;934.532;;;;
2020/03/26 01:09:04;;;;;;;23.8;17.3;;;;;;;-0.68;65.15039;934.5968;;;;
2020/03/26 01:11:29;;;;;;;21.9;16.9;;;;;;;-0.75;65.41602;934.5883;;;;
2020/03/26 01:13:54;;;;;;;23.1;17.1;;;;;;;-0.87;65.85352;934.5815;;;;
2020/03/26 01:16:21;;;;;;;22.6;17;;;;;;;-0.86;65.95703;934.5235;;;;
2020/03/26 01:18:45;;;;;;;22.8;17.4;;;;;;;-0.89;65.80664;934.4964;;;;
2020/03/26 01:21:10;;;;;;;21.2;16.9;;;;;;;-0.87;65.77441;934.5212;;;;
2020/03/26 01:23:35;;;;;;;23.5;16.8;;;;;;;-0.84;65.63672;934.5025;;;;
2020/03/26 01:26:00;;;;;;;23.8;17.4;;;;;;;-0.81;65.44238;934.5267;;;;
2020/03/26 01:28:25;;;;;;;24.2;17.7;;;;;;;-0.74;65.49512;934.4609;;;;
2020/03/26 01:30:50;;;;;;;22.2;17.2;;;;;;;-0.79;65.58984;934.4404;;;;
2020/03/26 01:33:15;;;;;;;23;17;;;;;;;-0.89;65.77344;934.3386;;;;
2020/03/26 01:35:41;;;;;;;21.9;16.2;;;;;;;-0.9;66.07129;934.3772;;;;
2020/03/26 01:38:06;;;;;;;22;16.1;;;;;;;-0.84;65.57031;934.394;;;;
2020/03/26 01:40:31;;;;;;;19.7;16.6;;;;;;;-0.9;65.88281;934.3943;;;;
2020/03/26 01:42:56;;;;;;;21;16.3;;;;;;;-0.89;65.78418;934.3846;;;;
2020/03/26 01:45:21;;;;;;;23;16.7;;;;;;;-0.9;65.70508;934.3607;;;;
2020/03/26 01:47:47;;;;;;;21.9;16.6;;;;;;;-0.95;65.59668;934.3343;;;;
2020/03/26 01:50:11;;;;;;;21.2;15.8;;;;;;;-0.9;65.40527;934.2731;;;;
2020/03/26 01:52:37;;;;;;;22.9;16.5;;;;;;;-0.89;65.36035;934.2;;;;
2020/03/26 01:55:02;;;;;;;19.5;15.8;;;;;;;-0.91;65.25879;934.182;;;;
2020/03/26 01:57:28;;;;;;;23.2;16.4;;;;;;;-0.99;65.31445;934.1614;;;;
2020/03/26 01:59:53;;;;;;;21.6;17.1;;;;;;;-1.17;66.46289;934.2488;;;;
2020/03/26 02:02:18;;;;;;;25;17.9;;;;;;;-1.29;66.85449;934.2487;;;;
2020/03/26 02:04:43;;;;;;;21.5;17.6;;;;;;;-1.3;67.01855;934.2142;;;;
2020/03/26 02:07:08;;;;;;;25.1;18.2;;;;;;;-1.31;67.39453;934.1375;;;;
2020/03/26 02:09:33;;;;;;;25.5;18.2;;;;;;;-1.31;67.31738;934.15;;;;
2020/03/26 02:11:58;;;;;;;20;17.1;;;;;;;-1.34;67.29004;934.2452;;;;
2020/03/26 02:14:23;;;;;;;21.4;17.8;;;;;;;-1.4;67.34863;934.2966;;;;
2020/03/26 02:16:49;;;;;;;24;18.2;;;;;;;-1.4;67.15918;934.2606;;;;
2020/03/26 02:19:14;;;;;;;22.1;18;;;;;;;-1.42;67.37891;934.2781;;;;
2020/03/26 02:21:39;;;;;;;22.6;18.8;;;;;;;-1.44;69.56152;934.3262;;;;
2020/03/26 02:24:04;;;;;;;23.7;18.8;;;;;;;-1.57;69.48535;934.3677;;;;
2020/03/26 02:26:29;;;;;;;26.2;20.2;;;;;;;-1.7;69.92969;934.3356;;;;
2020/03/26 02:33:47;;;;;;;27.3;20.8;;;;;;;-1.94;68.3916;934.4771;;;;
2020/03/26 02:36:09;;;;;;;25.8;19.9;;;;;;;-1.97;68.6084;934.468;;;;
2020/03/26 02:38:35;;;;;;;24.8;20.2;;;;;;;-2.02;69.27734;934.4762;;;;
2020/03/26 02:41:00;;;;;;;27.5;20.9;;;;;;;-2.14;70.00977;934.4998;;;;
2020/03/26 02:43:25;;;;;;;26.7;20.5;;;;;;;-2.08;70.25488;934.4841;;;;
2020/03/26 02:45:51;;;;;;;28;20;;;;;;;-2.12;70.51172;934.4796;;;;
2020/03/26 02:48:16;;;;;;;25.6;19.8;;;;;;;-2.06;70.39063;934.4563;;;;
2020/03/26 02:50:41;;;;;;;26.8;19.6;;;;;;;-1.99;70.11328;934.5248;;;;
2020/03/26 02:53:06;;;;;;;25.9;20.1;;;;;;;-1.95;69.87695;934.5065;;;;
2020/03/26 02:55:31;;;;;;;24.9;19.2;;;;;;;-1.91;69.80664;934.5366;;;;
2020/03/26 02:57:56;;;;;;;26.1;19.2;;;;;;;-1.91;69.86035;934.5348;;;;
2020/03/26 03:00:21;;;;;;;25.2;19.3;;;;;;;-1.9;69.68457;934.455;;;;
2020/03/26 03:02:46;;;;;;;26.4;18.8;;;;;;;-2;69.70117;934.5111;;;;
2020/03/26 03:05:12;;;;;;;25.5;19.2;;;;;;;-2.18;70.25879;934.4933;;;;
2020/03/26 03:07:37;;;;;;;24;18;;;;;;;-2.19;70.25879;934.3446;;;;
2020/03/26 03:10:02;;;;;;;24.2;17.8;;;;;;;-2.16;70.12891;934.3403;;;;
2020/03/26 03:12:27;;;;;;;26;18.3;;;;;;;-2.24;70.48242;934.4587;;;;
2020/03/26 03:14:52;;;;;;;23.3;18.3;;;;;;;-2.17;70.26074;934.4874;;;;
2020/03/26 03:17:17;;;;;;;25.4;18.4;;;;;;;-2.1;70.11719;934.4587;;;;
2020/03/26 03:19:42;;;;;;;25.3;19.1;;;;;;;-2.04;70.08203;934.4648;;;;
2020/03/26 03:22:07;;;;;;;25.6;19;;;;;;;-1.99;69.83594;934.3969;;;;
2020/03/26 03:24:32;;;;;;;25.6;19.1;;;;;;;-1.94;69.37988;934.4702;;;;
2020/03/26 03:26:57;;;;;;;25;18.5;;;;;;;-1.96;69.45215;934.5526;;;;
2020/03/26 03:29:22;;;;;;;24.4;18.2;;;;;;;-2.04;69.75098;934.5306;;;;
2020/03/26 03:31:48;;;;;;;24.1;17.8;;;;;;;-2.31;71.04688;934.5511;;;;
2020/03/26 03:34:13;;;;;;;22.8;17.7;;;;;;;-2.51;71.96387;934.5168;;;;
2020/03/26 03:36:38;;;;;;;23.1;18.3;;;;;;;-2.76;73.11523;934.4797;;;;
2020/03/26 03:39:03;;;;;;;24.5;18.4;;;;;;;-2.67;73.04395;934.4165;;;;
2020/03/26 03:41:28;;;;;;;24.7;18.7;;;;;;;-2.58;72.46191;934.4995;;;;
2020/03/26 03:43:53;;;;;;;25;18.3;;;;;;;-2.51;72.30664;934.414;;;;
2020/03/26 03:46:18;;;;;;;22.5;17.7;;;;;;;-2.63;72.62012;934.3674;;;;
2020/03/26 03:48:44;;;;;;;25.1;17.9;;;;;;;-2.74;73.28613;934.363;;;;
2020/03/26 03:51:09;;;;;;;24;17.8;;;;;;;-2.69;73.2627;934.2927;;;;
2020/03/26 03:53:36;;;;;;;22.5;17.3;;;;;;;-2.55;72.48926;934.3209;;;;
2020/03/26 03:56:01;;;;;;;21;16.6;;;;;;;-2.5;71.9668;934.4094;;;;
2020/03/26 03:58:26;;;;;;;24;17.8;;;;;;;-2.52;72.30664;934.4692;;;;
2020/03/26 04:02:30;;;;;;;24.8;18.5;;;;;;;-2.52;73.2041;934.4589;;;;
2020/03/26 04:04:55;;;;;;;25.4;19.1;;;;;;;-2.4;73.21191;934.4562;;;;
2020/03/26 04:07:20;;;;;;;174.1;138;;;;;;;-2.49;73.05371;934.5111;;;;
2020/03/26 04:09:45;;;;;;;73.2;58.9;;;;;;;-2.41;72.25879;934.4216;;;;
2020/03/26 04:12:10;;;;;;;28.4;19.1;;;;;;;-2.45;72.24219;934.5056;;;;
2020/03/26 04:14:35;;;;;;;27.2;18.5;;;;;;;-2.34;71.55176;934.4966;;;;
2020/03/26 04:17:01;;;;;;;27.3;19.2;;;;;;;-2.5;71.98926;934.4849;;;;
2020/03/26 04:19:26;;;;;;;24.2;18.2;;;;;;;-2.7;72.85156;934.4221;;;;
2020/03/26 04:21:52;;;;;;;24.7;18.4;;;;;;;-2.85;73.6748;934.5282;;;;
2020/03/26 04:24:16;;;;;;;24.5;18;;;;;;;-3.02;74.37598;934.6147;;;;
2020/03/26 04:26:42;;;;;;;22.9;17.7;;;;;;;-3.1;74.71777;934.5072;;;;
2020/03/26 04:29:07;;;;;;;25.2;17.2;;;;;;;-3.15;75.08203;934.5385;;;;
2020/03/26 04:31:32;;;;;;;23.2;17.7;;;;;;;-3.17;75.27734;934.5074;;;;
2020/03/26 04:33:57;;;;;;;22;17.1;;;;;;;-3.26;75.79395;934.5474;;;;
2020/03/26 04:36:22;;;;;;;25.6;18.3;;;;;;;-3.46;76.95117;934.4917;;;;
2020/03/26 04:38:47;;;;;;;21.9;17.8;;;;;;;-3.34;76.68555;934.575;;;;
2020/03/26 04:43:37;;;;;;;22;17.5;;;;;;;-3.43;77.12207;934.58;;;;
2020/03/26 04:46:03;;;;;;;23.8;17.7;;;;;;;-3.44;76.97461;934.5759;;;;
2020/03/26 04:48:28;;;;;;;23.6;17.1;;;;;;;-3.4;76.80664;934.5492;;;;
2020/03/26 04:50:53;;;;;;;22.6;17.3;;;;;;;-3.41;76.81543;934.6259;;;;
2020/03/26 04:53:18;;;;;;;22.4;16.5;;;;;;;-3.34;76.48438;934.598;;;;
2020/03/26 04:55:43;;;;;;;19.9;14.8;;;;;;;-3.32;75.99023;934.634;;;;
2020/03/26 04:58:09;;;;;;;20.9;15.5;;;;;;;-3.23;75.59961;934.6498;;;;
2020/03/26 05:00:34;;;;;;;19.5;15.2;;;;;;;-3.16;75.06934;934.6976;;;;
2020/03/26 05:02:59;;;;;;;19.5;14.5;;;;;;;-3.17;74.74707;934.6582;;;;
2020/03/26 05:05:24;;;;;;;19.8;15.3;;;;;;;-3.19;74.97656;934.6163;;;;
2020/03/26 05:07:49;;;;;;;22.4;16.2;;;;;;;-3.1;75.07129;934.7277;;;;
2020/03/26 05:10:14;;;;;;;19.7;14.3;;;;;;;-2.93;73.99414;934.7719;;;;
2020/03/26 05:12:40;;;;;;;23.4;15.4;;;;;;;-2.74;73.18652;934.8638;;;;
2020/03/26 05:15:05;;;;;;;20.3;15;;;;;;;-2.73;72.94336;934.9229;;;;
2020/03/26 05:17:30;;;;;;;18.1;13.9;;;;;;;-2.72;72.37207;934.9523;;;;
2020/03/26 05:19:55;;;;;;;19.5;15;;;;;;;-2.9;72.99414;934.9807;;;;
2020/03/26 05:22:20;;;;;;;23.7;16.9;;;;;;;-2.79;72.5918;934.9464;;;;
2020/03/26 05:24:46;;;;;;;22.5;16.3;;;;;;;-2.83;72.60449;934.9306;;;;
2020/03/26 05:27:11;;;;;;;21.8;15.2;;;;;;;-3.08;73.32617;935.0197;;;;
2020/03/26 05:29:36;;;;;;;20.1;14.7;;;;;;;-3.09;73.54492;935.0799;;;;
2020/03/26 05:32:01;;;;;;;24.6;16.4;;;;;;;-3.18;74.34766;935.0578;;;;
2020/03/26 05:34:26;;;;;;;23.7;16.7;;;;;;;-3.22;74.65039;935.1222;;;;
2020/03/26 05:36:51;;;;;;;21.2;15.1;;;;;;;-3.24;74.5791;935.1407;;;;
2020/03/26 05:39:16;;;;;;;20;14.9;;;;;;;-3.17;74.26074;935.1222;;;;
2020/03/26 05:41:42;;;;;;;21;14.1;;;;;;;-3.15;74.08887;935.1553;;;;
2020/03/26 05:44:07;;;;;;;23.8;14.4;;;;;;;-3.24;74.6582;935.1525;;;;
2020/03/26 05:46:32;;;;;;;21.3;14.3;;;;;;;-3.17;74.25;935.1371;;;;
2020/03/26 05:48:57;;;;;;;19.4;14.2;;;;;;;-2.99;73.69727;935.1552;;;;
2020/03/26 05:51:22;;;;;;;19.6;14.4;;;;;;;-3.02;73.90039;935.128;;;;
2020/03/26 05:53:47;;;;;;;18.7;13.1;;;;;;;-2.73;72.73438;935.1039;;;;
2020/03/26 05:56:12;;;;;;;17.9;13.3;;;;;;;-2.5;71.16797;934.9703;;;;
2020/03/26 05:58:38;;;;;;;18.5;13.6;;;;;;;-2.31;70.25977;935.0034;;;;
2020/03/26 06:03:51;;;;;;;21.2;13.5;;;;;;;-1.59;68.2041;935.0309;;;;
2020/03/26 06:05:53;;;;;;;22.3;13.1;;;;;;;-1.17;66.14063;935.0048;;;;
2020/03/26 06:08:19;;;;;;;29;16;;;;;;;-0.79;64.71191;935.0156;;;;
2020/03/26 06:10:44;;;;;;;38.9;19;;;;;;;-0.25;62.80078;934.9378;;;;
2020/03/26 06:13:09;;;;;;;42.3;19.2;;;;;;;0.29;60.71875;934.975;;;;
2020/03/26 06:15:34;;;;;;;24.3;13.8;;;;;;;0.4;59.9541;934.9974;;;;
2020/03/26 06:18:00;;;;;;;15.2;10;;;;;;;0.58;59.19727;934.9026;;;;
2020/03/26 06:20:25;;;;;;;17.9;10.8;;;;;;;0.94;58.34375;934.989;;;;
2020/03/26 06:22:51;;;;;;;14.3;10.4;;;;;;;1.12;57.25293;934.9543;;;;
2020/03/26 06:25:16;;;;;;;15.5;10.4;;;;;;;1.27;56.58008;934.9196;;;;
2020/03/26 06:27:41;;;;;;;20.3;12.3;;;;;;;1.6;55.96387;934.9063;;;;
2020/03/26 06:30:07;;;;;;;15.9;9.7;;;;;;;2.07;54.40332;934.7933;;;;
2020/03/26 06:32:32;;;;;;;20.7;11.5;;;;;;;2.06;53.41699;934.8124;;;;
2020/03/26 06:34:57;;;;;;;25.5;13.6;;;;;;;2.32;52.83398;934.7919;;;;
2020/03/26 06:37:23;;;;;;;27.3;16.2;;;;;;;2.85;51.25;934.8158;;;;
2020/03/26 06:39:48;;;;;;;18.2;12.3;;;;;;;2.84;49.44434;934.8621;;;;
2020/03/26 06:42:13;;;;;;;17.5;10.1;;;;;;;2.21;50.89355;934.8886;;;;
2020/03/26 06:44:38;;;;;;;13.7;8.2;;;;;;;1.94;51.25293;934.8864;;;;
2020/03/26 06:47:03;;;;;;;9.7;7.8;;;;;;;2.71;50.02246;934.8572;;;;
2020/03/26 06:49:29;;;;;;;9.8;7;;;;;;;3.46;47.96582;935.0183;;;;
2020/03/26 06:51:55;;;;;;;9.7;7.3;;;;;;;3.46;47.20215;934.9522;;;;
2020/03/26 06:54:20;;;;;;;21.3;13.1;;;;;;;2.49;49.8291;935.0542;;;;
2020/03/26 06:56:46;;;;;;;13.1;8.2;;;;;;;2.38;47.44141;935.0745;;;;
2020/03/26 06:59:11;;;;;;;12.5;7.3;;;;;;;3.29;45.11914;935.035;;;;
2020/03/26 07:01:36;;;;;;;12.8;7.5;;;;;;;3.65;44.90918;935.0087;;;;
2020/03/26 07:04:13;;;;;;;11.6;8.4;;;;;;;2.59;45.95117;935.085;;;;
2020/03/26 07:06:26;;;;;;;16;9.3;;;;;;;2.72;46.40234;935.0369;;;;
2020/03/26 07:08:51;;;;;;;13.6;9.1;;;;;;;3.11;46.82715;934.9746;;;;
2020/03/26 07:11:17;;;;;;;11.5;7.6;;;;;;;2.93;46.57227;935.034;;;;
2020/03/26 07:13:42;;;;;;;12.8;6.5;;;;;;;2.64;46.4502;935.0814;;;;
2020/03/26 07:16:07;;;;;;;19.8;6.1;;;;;;;2.6;43.7002;935.1033;;;;
2020/03/26 07:18:32;;;;;;;8;5.8;;;;;;;2.4;43.23242;935.0598;;;;
2020/03/26 07:21:06;;;;;;;11.3;7;;;;;;;2.75;43.73828;935.1016;;;;
2020/03/26 07:23:22;;;;;;;9;5.7;;;;;;;3.44;39.7666;935.1052;;;;
2020/03/26 07:25:47;;;;;;;9.6;6.3;;;;;;;3.13;40.0625;935.1319;;;;
2020/03/26 07:28:12;;;;;;;8.4;5.9;;;;;;;3.08;41.60547;935.144;;;;
2020/03/26 07:30:37;;;;;;;13.7;8.1;;;;;;;2.77;43.94141;935.1414;;;;
2020/03/26 07:33:02;;;;;;;9.5;5.4;;;;;;;2.99;42.71973;935.1223;;;;
2020/03/26 07:35:27;;;;;;;7.3;5.1;;;;;;;3.12;42.50781;935.1708;;;;
2020/03/26 07:37:52;;;;;;;10.7;4.9;;;;;;;3.26;41.5;935.1683;;;;
2020/03/26 07:40:17;;;;;;;8.1;4.5;;;;;;;3.34;41.50879;935.0734;;;;
2020/03/26 07:42:42;;;;;;;9.6;4.8;;;;;;;3.61;43.50098;935.1577;;;;
2020/03/26 07:45:07;;;;;;;8.9;4.8;;;;;;;3.63;40.55859;935.1686;;;;
2020/03/26 07:47:38;;;;;;;6.1;4.8;;;;;;;3.45;40.26074;935.1778;;;;
2020/03/26 07:50:04;;;;;;;9.6;5.5;;;;;;;3.68;41.40625;935.1905;;;;
2020/03/26 07:52:29;;;;;;;8.1;4.7;;;;;;;3.63;40.81836;935.175;;;;
2020/03/26 07:54:54;;;;;;;8.3;4.8;;;;;;;3.42;41.55078;935.2211;;;;
2020/03/26 07:57:19;;;;;;;9.5;5.5;;;;;;;3.35;42.42969;935.1806;;;;
2020/03/26 07:59:44;;;;;;;9.8;5.8;;;;;;;3.52;44.31152;935.2272;;;;
2020/03/26 08:02:10;;;;;;;9.8;6.8;;;;;;;3.84;43.43457;935.1775;;;;
2020/03/26 08:04:35;;;;;;;6.1;4;;;;;;;3.74;39.36719;935.1917;;;;
2020/03/26 08:07:01;;;;;;;5.3;4.1;;;;;;;3.9;40.06738;935.2059;;;;
2020/03/26 08:09:26;;;;;;;6.6;4.5;;;;;;;4.24;39.21094;935.1873;;;;
2020/03/26 08:11:52;;;;;;;9.3;5.8;;;;;;;4.45;39.10645;935.1465;;;;
2020/03/26 08:14:17;;;;;;;7.6;5.3;;;;;;;4.34;38.76953;935.101;;;;
2020/03/26 08:16:42;;;;;;;5.7;4.3;;;;;;;4.02;38.23535;935.1428;;;;
2020/03/26 08:19:07;;;;;;;5.4;3.8;;;;;;;4.04;39.2041;935.1331;;;;
2020/03/26 08:21:32;;;;;;;6.4;3.7;;;;;;;4.01;37.96387;935.1993;;;;
2020/03/26 08:23:57;;;;;;;7.5;4.8;;;;;;;4.35;37.9043;935.1997;;;;
2020/03/26 08:26:22;;;;;;;9.7;5;;;;;;;4.62;38.06348;935.0576;;;;
2020/03/26 08:28:47;;;;;;;6.6;4.3;;;;;;;4.61;36.56445;935.1923;;;;
2020/03/26 08:31:13;;;;;;;5.8;3.8;;;;;;;4.55;36.49219;935.1889;;;;
2020/03/26 08:33:38;;;;;;;5;3.4;;;;;;;4.76;36.03613;935.1677;;;;
2020/03/26 08:36:03;;;;;;;5.7;3.3;;;;;;;4.5;36.09375;935.2404;;;;
2020/03/26 08:38:28;;;;;;;5.8;3.1;;;;;;;4.34;35.75391;935.3153;;;;
2020/03/26 08:40:53;;;;;;;12.6;7.3;;;;;;;4.83;43.34375;935.2668;;;;
2020/03/26 08:43:18;;;;;;;13.3;8.2;;;;;;;4.39;49.10742;935.3372;;;;
2020/03/26 08:45:43;;;;;;;13.5;8.1;;;;;;;4.86;48.01074;935.2889;;;;
2020/03/26 08:48:08;;;;;;;11;8.7;;;;;;;5;48.87402;935.3013;;;;
2020/03/26 08:50:33;;;;;;;16.5;9.8;;;;;;;5.09;48.82617;935.3882;;;;
2020/03/26 08:52:58;;;;;;;12.6;9.4;;;;;;;5.36;47.81934;935.3943;;;;
2020/03/26 08:55:23;;;;;;;11.7;9.2;;;;;;;5.19;46.89844;935.4152;;;;
2020/03/26 08:57:48;;;;;;;12.9;8.8;;;;;;;4.98;46.51465;935.3772;;;;
2020/03/26 09:00:13;;;;;;;11.3;9.4;;;;;;;4.82;47.68164;935.4252;;;;
2020/03/26 09:02:38;;;;;;;9.9;8.9;;;;;;;4.93;47.72656;935.4714;;;;
2020/03/26 09:05:04;;;;;;;13.1;9.7;;;;;;;4.95;47.22168;935.5383;;;;
2020/03/26 09:07:29;;;;;;;13.6;9.8;;;;;;;5.2;46.97852;935.465;;;;
2020/03/26 09:09:54;;;;;;;12.7;10.3;;;;;;;5.32;47.51074;935.4416;;;;
2020/03/26 09:12:19;;;;;;;14.2;10.9;;;;;;;5.4;48.53516;935.4222;;;;
2020/03/26 09:14:44;;;;;;;14.3;11.5;;;;;;;5.69;47.93652;935.4271;;;;
2020/03/26 09:17:09;;;;;;;13;9.4;;;;;;;6.29;45.18652;935.3638;;;;
2020/03/26 09:19:34;;;;;;;13;8.7;;;;;;;6.68;42.74023;935.3461;;;;
2020/03/26 09:26:50;;;;;;;13.3;9.3;;;;;;;6.34;42.97754;935.3301;;;;
2020/03/26 09:29:14;;;;;;;10.1;8.2;;;;;;;6.68;42.26367;935.2534;;;;
2020/03/26 09:31:40;;;;;;;12.4;8.6;;;;;;;6.6;42.96973;935.2391;;;;
2020/03/26 09:34:05;;;;;;;10.6;8.6;;;;;;;6.89;42.91992;935.2545;;;;
2020/03/26 09:36:30;;;;;;;9.7;7.5;;;;;;;7.56;40.02637;935.2714;;;;
2020/03/26 09:38:55;;;;;;;10.3;8.2;;;;;;;7.89;40.0459;935.2667;;;;
2020/03/26 09:41:20;;;;;;;10.3;8.5;;;;;;;8.08;38.95215;935.2617;;;;
2020/03/26 09:43:45;;;;;;;10.4;8.2;;;;;;;8.02;39.83008;935.245;;;;
2020/03/26 09:46:10;;;;;;;10.9;8.8;;;;;;;7.49;41.5957;935.1586;;;;
2020/03/26 09:48:36;;;;;;;10.5;7.9;;;;;;;7.32;41.5918;935.1818;;;;
2020/03/26 09:51:01;;;;;;;9.7;7.9;;;;;;;7.21;42.1123;935.0798;;;;
2020/03/26 09:53:26;;;;;;;8.9;7;;;;;;;7.22;41.21875;935.0923;;;;
2020/03/26 09:55:51;;;;;;;10.6;7.7;;;;;;;6.9;41.66406;934.9952;;;;
2020/03/26 09:58:16;;;;;;;9.2;7.7;;;;;;;6.47;42.15332;934.9763;;;;
2020/03/26 10:00:41;;;;;;;11.1;7.9;;;;;;;6.28;43.62695;935.0609;;;;
2020/03/26 10:03:06;;;;;;;9.6;7.4;;;;;;;6.01;43.65625;935.0045;;;;
2020/03/26 10:05:31;;;;;;;9.2;7.3;;;;;;;5.84;43.24414;935.0223;;;;
2020/03/26 10:07:57;;;;;;;11.2;9.2;;;;;;;5.88;44.96387;935.0352;;;;
2020/03/26 10:10:22;;;;;;;11.4;8.6;;;;;;;6.09;44.2627;935.0787;;;;
2020/03/26 10:12:47;;;;;;;10.6;8.8;;;;;;;6.33;43.6084;935.1069;;;;
2020/03/26 10:15:12;;;;;;;12;9.2;;;;;;;5.71;46.44824;935.0619;;;;
2020/03/26 10:17:37;;;;;;;9.7;8.1;;;;;;;5.72;44.74414;935.1191;;;;
2020/03/26 10:20:02;;;;;;;10.4;8.6;;;;;;;5.82;44.4043;935.0471;;;;
2020/03/26 10:22:28;;;;;;;10.9;8.5;;;;;;;5.89;44.93262;935.1064;;;;
2020/03/26 10:24:53;;;;;;;11.1;8.3;;;;;;;6.12;44.65039;935.0897;;;;
2020/03/26 10:27:17;;;;;;;10.4;8.1;;;;;;;6.04;44.90234;935.0881;;;;
2020/03/26 10:29:43;;;;;;;10.6;8.3;;;;;;;5.37;46.47754;935.0889;;;;
2020/03/26 10:32:08;;;;;;;10.4;8.6;;;;;;;5.31;46.19043;935.165;;;;
2020/03/26 10:34:33;;;;;;;11.8;8.3;;;;;;;5.09;47.32715;935.2194;;;;
2020/03/26 10:36:58;;;;;;;9.7;8;;;;;;;5.01;47.25098;935.2245;;;;
2020/03/26 10:39:23;;;;;;;10.8;8.7;;;;;;;5.02;47.4209;935.2894;;;;
2020/03/26 10:41:48;;;;;;;10.3;8.1;;;;;;;5.02;47.24023;935.2735;;;;
2020/03/26 10:44:13;;;;;;;9.7;7.9;;;;;;;5.24;46.99316;935.3281;;;;
2020/03/26 10:46:38;;;;;;;9.4;8.4;;;;;;;5.04;47.20801;935.4224;;;;
2020/03/26 10:49:04;;;;;;;11.4;7.8;;;;;;;4.89;46.5625;935.4421;;;;
2020/03/26 10:51:29;;;;;;;11.9;8.1;;;;;;;4.76;48.14746;935.4826;;;;
2020/03/26 10:53:55;;;;;;;9.6;8.6;;;;;;;4.46;48.59668;935.6379;;;;
2020/03/26 10:56:19;;;;;;;10.3;7.9;;;;;;;4.54;49.13477;935.4548;;;;
2020/03/26 10:58:44;;;;;;;10;8.6;;;;;;;4.29;49.75977;935.5826;;;;
2020/03/26 11:01:10;;;;;;;10.2;8.6;;;;;;;4.63;49.03223;935.553;;;;
2020/03/26 11:03:35;;;;;;;9.6;8.2;;;;;;;4.53;48.96582;935.5187;;;;
2020/03/26 11:06:00;;;;;;;12.4;7.8;;;;;;;5.16;47.66211;935.4768;;;;
2020/03/26 11:08:25;;;;;;;10.3;8.1;;;;;;;5.3;48.99707;935.5278;;;;
2020/03/26 11:10:50;;;;;;;9.8;7.8;;;;;;;5.75;46.88086;935.476;;;;
2020/03/26 11:13:15;;;;;;;9.9;7.6;;;;;;;5.43;46.70996;935.5564;;;;
2020/03/26 11:15:40;;;;;;;10.8;8.1;;;;;;;5.3;48.14063;935.5287;;;;
2020/03/26 11:18:05;;;;;;;9;7.7;;;;;;;5.54;46.76758;935.5212;;;;
2020/03/26 11:20:31;;;;;;;10;7.5;;;;;;;5.75;44.55566;935.5131;;;;
2020/03/26 11:22:55;;;;;;;8.7;7.2;;;;;;;5.61;45.92773;935.5413;;;;
2020/03/26 11:25:21;;;;;;;8.6;7.5;;;;;;;5.42;46.26953;935.7015;;;;
2020/03/26 11:27:46;;;;;;;12.1;8.9;;;;;;;5.15;47.61621;935.748;;;;
2020/03/26 11:30:11;;;;;;;9.6;8;;;;;;;5.24;48.38184;935.7269;;;;
2020/03/26 11:32:36;;;;;;;11.8;7.5;;;;;;;5.63;45.51367;935.6619;;;;
2020/03/26 11:35:01;;;;;;;8.4;7.1;;;;;;;5.57;45.85645;935.7028;;;;
2020/03/26 11:37:26;;;;;;;9.1;6.7;;;;;;;5.75;44.25;935.6622;;;;
2020/03/26 11:39:51;;;;;;;7.6;6.6;;;;;;;5.69;44.1875;935.7202;;;;
2020/03/26 11:42:16;;;;;;;7.3;6.6;;;;;;;5.77;43.49609;935.7885;;;;
2020/03/26 11:44:41;;;;;;;8.3;6.8;;;;;;;6.01;43.50879;935.6935;;;;
2020/03/26 11:47:06;;;;;;;7.9;6.5;;;;;;;6.12;43.2041;935.5055;;;;
2020/03/26 11:49:31;;;;;;;7;6.3;;;;;;;5.81;43.58984;935.6545;;;;
2020/03/26 11:51:56;;;;;;;8.7;6.3;;;;;;;5.28;43.41309;935.5756;;;;
2020/03/26 11:54:22;;;;;;;7.9;6.4;;;;;;;5.43;43.61816;935.5707;;;;
2020/03/26 11:56:47;;;;;;;12;6.6;;;;;;;5.33;45.4248;935.5925;;;;
2020/03/26 11:59:15;;;;;;;10.3;6.7;;;;;;;5.37;45.68848;935.5983;;;;
2020/03/26 12:01:42;;;;;;;8.1;6.7;;;;;;;5.5;45.03613;935.728;;;;
2020/03/26 12:04:07;;;;;;;7.5;6.7;;;;;;;5.69;44.87695;935.7233;;;;
2020/03/26 12:06:33;;;;;;;9.6;6.9;;;;;;;5.79;45.8916;935.675;;;;
2020/03/26 12:08:58;;;;;;;9.3;6.9;;;;;;;5.79;44.80762;935.7098;;;;
2020/03/26 12:11:23;;;;;;;9.8;6.8;;;;;;;6.01;44.60352;935.5391;;;;
2020/03/26 12:13:49;;;;;;;9;6.8;;;;;;;5.7;44.67383;935.5251;;;;
2020/03/26 12:16:14;;;;;;;8.9;6.8;;;;;;;5.7;44.69727;935.5396;;;;
2020/03/26 12:18:39;;;;;;;9.7;6.4;;;;;;;5.65;45.40234;935.5945;;;;
2020/03/26 12:21:04;;;;;;;23.4;7.5;;;;;;;5.39;46.32227;935.6587;;;;
2020/03/26 12:23:29;;;;;;;9.7;7.4;;;;;;;5.13;47.39941;935.6717;;;;
2020/03/26 12:25:54;;;;;;;12.2;7.5;;;;;;;5.32;47.36426;935.6422;;;;
2020/03/26 12:28:19;;;;;;;10.2;7.6;;;;;;;5.69;46.84082;935.6032;;;;
2020/03/26 12:30:44;;;;;;;12.1;7.3;;;;;;;5.9;45.42969;935.6039;;;;
2020/03/26 12:33:09;;;;;;;10;7.9;;;;;;;5.6;46.69531;935.6025;;;;
2020/03/26 12:35:35;;;;;;;9.6;7.8;;;;;;;5.68;46.55664;935.6116;;;;
2020/03/26 12:38:00;;;;;;;16.1;8.6;;;;;;;5.77;47.1875;935.5837;;;;
2020/03/26 12:40:25;;;;;;;10.5;8.2;;;;;;;5.6;47.36133;935.5244;;;;
2020/03/26 12:42:50;;;;;;;9.7;8;;;;;;;5.64;46.50781;935.652;;;;
2020/03/26 12:45:16;;;;;;;8.8;7.9;;;;;;;4.97;48.4082;935.6564;;;;
2020/03/26 12:47:41;;;;;;;11.3;8;;;;;;;4.81;49.10938;935.6552;;;;
2020/03/26 12:50:06;;;;;;;8.9;8;;;;;;;4.65;49.47461;935.7097;;;;
2020/03/26 12:52:31;;;;;;;13.1;8.2;;;;;;;4.88;50.01953;935.6768;;;;
2020/03/26 12:54:56;;;;;;;10;8.2;;;;;;;4.98;49.37793;935.7266;;;;
2020/03/26 12:57:21;;;;;;;8.7;7.8;;;;;;;5.01;49.85449;935.753;;;;
2020/03/26 12:59:46;;;;;;;9.1;8.1;;;;;;;4.74;50.28516;935.7422;;;;
2020/03/26 13:02:12;;;;;;;10.5;8.2;;;;;;;4.72;50.90332;935.7639;;;;
2020/03/26 13:04:38;;;;;;;10.2;8.9;;;;;;;5.05;50.54688;935.7525;;;;
2020/03/26 13:07:03;;;;;;;11.4;8.9;;;;;;;5.03;49.56445;935.6969;;;;
2020/03/26 13:09:28;;;;;;;9.8;8.6;;;;;;;4.68;51.71973;935.6397;;;;
2020/03/26 13:11:54;;;;;;;16.2;12.3;;;;;;;4.77;51.70801;935.7746;;;;
2020/03/26 13:14:19;;;;;;;11.7;9.2;;;;;;;4.84;51.6377;935.7611;;;;
2020/03/26 13:16:43;;;;;;;19.1;13.6;;;;;;;4.85;50.98535;935.8101;;;;
2020/03/26 13:19:09;;;;;;;17.3;13.5;;;;;;;4.9;50.62012;935.7578;;;;
2020/03/26 13:21:34;;;;;;;24.6;16.8;;;;;;;5.03;50.64648;935.7787;;;;
2020/03/26 13:23:59;;;;;;;21;15.7;;;;;;;5.15;50.33301;935.8095;;;;
2020/03/26 13:26:24;;;;;;;17.5;14;;;;;;;5.13;49.86914;935.8209;;;;
2020/03/26 13:28:49;;;;;;;10.4;8.8;;;;;;;5.15;49.2959;935.7961;;;;
2020/03/26 13:31:14;;;;;;;10.5;9.1;;;;;;;5.32;49.50781;935.7739;;;;
2020/03/26 13:33:39;;;;;;;12;10.1;;;;;;;5.38;50.5752;935.8519;;;;
2020/03/26 13:36:04;;;;;;;11.3;9.3;;;;;;;5.13;51.7168;935.7805;;;;
2020/03/26 13:38:30;;;;;;;12.7;11;;;;;;;5.04;51.18848;935.7342;;;;
2020/03/26 13:40:55;;;;;;;13.1;10.3;;;;;;;5.23;50.47852;935.7455;;;;
2020/03/26 13:43:20;;;;;;;17.2;12.6;;;;;;;5.15;51.0791;935.7551;;;;
2020/03/26 13:45:45;;;;;;;16.5;12.9;;;;;;;5.06;51.02051;935.6714;;;;
2020/03/26 13:48:10;;;;;;;20.8;15;;;;;;;5.04;50.80566;935.7122;;;;
2020/03/26 13:50:36;;;;;;;19.9;14.1;;;;;;;4.99;50.2002;935.7095;;;;
2020/03/26 13:53:02;;;;;;;25.8;17.8;;;;;;;5.11;50.23828;935.709;;;;
2020/03/26 13:55:27;;;;;;;40.1;26.1;;;;;;;5.33;49.48633;935.7189;;;;
2020/03/26 13:57:53;;;;;;;15.1;9.9;;;;;;;5.29;50.43945;935.7123;;;;
2020/03/26 14:00:17;;;;;;;12.4;11.1;;;;;;;5.13;51.30078;935.7547;;;;
2020/03/26 14:02:43;;;;;;;13.4;11.1;;;;;;;5.02;51.0498;935.788;;;;
2020/03/26 14:05:08;;;;;;;20.6;16.6;;;;;;;5.01;51.99707;935.7177;;;;
2020/03/26 14:07:33;;;;;;;13.1;9.5;;;;;;;4.82;52.77246;935.7391;;;;
2020/03/26 14:09:58;;;;;;;12.5;9.9;;;;;;;5.01;51.95215;935.7272;;;;
2020/03/26 14:12:28;;;;;;;11.4;10;;;;;;;5.03;51.60449;935.7877;;;;
2020/03/26 14:15:13;;;;;;;12.5;10.2;;;;;;;5.26;51.01172;935.7859;;;;
2020/03/26 14:17:14;;;;;;;12;10.2;;;;;;;5.43;50.97559;935.7104;;;;
2020/03/26 14:19:39;;;;;;;11.8;10.2;;;;;;;5.51;50.28613;935.7496;;;;
2020/03/26 14:22:04;;;;;;;13.2;9.6;;;;;;;5.4;51.13086;935.6211;;;;
2020/03/26 14:24:29;;;;;;;11.8;10.2;;;;;;;5.36;51.2041;935.7717;;;;